sensor_id;sensor_type;location;lat;lon;timestamp;P1;durP1;ratioP1;P2;durP2;ratioP2
22705;SDS011;11520;51.198;4.468;2022-10-26T00:00:41;7.30;;;3.35;;
22705;SDS011;11520;51.198;4.468;2022-10-26T00:03:07;9.10;;;3.92;;
22705;SDS011;11520;51.198;4.468;2022-10-26T00:05:33;9.55;;;4.30;;
22705;SDS011;11520;51.198;4.468;2022-10-26T00:08:00;8.25;;;3.58;;
22705;SDS011;11520;51.198;4.468;2022-10-26T00:10:27;9.07;;;3.70;;
22705;SDS011;11520;51.198;4.468;2022-10-26T00:12:54;6.07;;;3.58;;
22705;SDS011;11520;51.198;4.468;2022-10-26T00:15:20;7.20;;;4.05;;
22705;SDS011;11520;51.198;4.468;2022-10-26T00:17:46;11.95;;;3.85;;
22705;SDS011;11520;51.198;4.468;2022-10-26T00:20:12;8.43;;;4.63;;
22705;SDS011;11520;51.198;4.468;2022-10-26T00:22:38;10.15;;;3.80;;
22705;SDS011;11520;51.198;4.468;2022-10-26T00:25:04;11.55;;;3.70;;
22705;SDS011;11520;51.198;4.468;2022-10-26T00:27:30;8.05;;;3.58;;
22705;SDS011;11520;51.198;4.468;2022-10-26T00:29:59;12.95;;;4.15;;
22705;SDS011;11520;51.198;4.468;2022-10-26T00:32:26;7.95;;;3.55;;
22705;SDS011;11520;51.198;4.468;2022-10-26T00:34:53;6.60;;;3.92;;
22705;SDS011;11520;51.198;4.468;2022-10-26T00:37:18;7.22;;;3.42;;
22705;SDS011;11520;51.198;4.468;2022-10-26T00:39:44;7.63;;;3.63;;
22705;SDS011;11520;51.198;4.468;2022-10-26T00:42:20;8.63;;;3.80;;
22705;SDS011;11520;51.198;4.468;2022-10-26T00:47:35;8.02;;;3.28;;
22705;SDS011;11520;51.198;4.468;2022-10-26T00:52:57;8.68;;;3.10;;
22705;SDS011;11520;51.198;4.468;2022-10-26T00:55:26;7.82;;;3.63;;
22705;SDS011;11520;51.198;4.468;2022-10-26T00:57:54;8.88;;;3.53;;
22705;SDS011;11520;51.198;4.468;2022-10-26T01:00:20;7.47;;;3.50;;
22705;SDS011;11520;51.198;4.468;2022-10-26T01:02:46;9.55;;;3.60;;
22705;SDS011;11520;51.198;4.468;2022-10-26T01:05:16;8.55;;;3.42;;
22705;SDS011;11520;51.198;4.468;2022-10-26T01:07:42;7.28;;;3.17;;
22705;SDS011;11520;51.198;4.468;2022-10-26T01:10:08;7.53;;;3.30;;
22705;SDS011;11520;51.198;4.468;2022-10-26T01:12:34;8.35;;;3.90;;
22705;SDS011;11520;51.198;4.468;2022-10-26T01:15:01;8.43;;;3.60;;
22705;SDS011;11520;51.198;4.468;2022-10-26T01:20:38;9.80;;;3.85;;
22705;SDS011;11520;51.198;4.468;2022-10-26T01:32:02;5.50;;;3.35;;
22705;SDS011;11520;51.198;4.468;2022-10-26T01:37:19;6.97;;;3.38;;
22705;SDS011;11520;51.198;4.468;2022-10-26T01:39:53;9.15;;;3.45;;
22705;SDS011;11520;51.198;4.468;2022-10-26T01:42:26;6.63;;;2.83;;
22705;SDS011;11520;51.198;4.468;2022-10-26T01:45:05;8.57;;;3.75;;
22705;SDS011;11520;51.198;4.468;2022-10-26T01:47:33;12.88;;;3.65;;
22705;SDS011;11520;51.198;4.468;2022-10-26T01:50:03;7.63;;;3.40;;
22705;SDS011;11520;51.198;4.468;2022-10-26T01:52:30;11.18;;;3.25;;
22705;SDS011;11520;51.198;4.468;2022-10-26T01:55:01;8.38;;;3.03;;
22705;SDS011;11520;51.198;4.468;2022-10-26T01:57:47;6.10;;;3.00;;
22705;SDS011;11520;51.198;4.468;2022-10-26T02:00:15;5.03;;;2.95;;
22705;SDS011;11520;51.198;4.468;2022-10-26T02:09:07;6.13;;;3.22;;
22705;SDS011;11520;51.198;4.468;2022-10-26T02:11:45;6.05;;;2.78;;
22705;SDS011;11520;51.198;4.468;2022-10-26T02:17:05;11.43;;;3.40;;
22705;SDS011;11520;51.198;4.468;2022-10-26T02:19:41;5.57;;;3.58;;
22705;SDS011;11520;51.198;4.468;2022-10-26T02:24:55;8.13;;;2.97;;
22705;SDS011;11520;51.198;4.468;2022-10-26T02:27:26;6.97;;;3.00;;
22705;SDS011;11520;51.198;4.468;2022-10-26T02:29:55;5.75;;;3.00;;
22705;SDS011;11520;51.198;4.468;2022-10-26T02:32:22;7.53;;;3.15;;
22705;SDS011;11520;51.198;4.468;2022-10-26T02:34:50;9.13;;;3.42;;
22705;SDS011;11520;51.198;4.468;2022-10-26T02:37:18;6.32;;;3.03;;
22705;SDS011;11520;51.198;4.468;2022-10-26T02:39:45;5.93;;;2.90;;
22705;SDS011;11520;51.198;4.468;2022-10-26T02:42:15;9.77;;;3.50;;
22705;SDS011;11520;51.198;4.468;2022-10-26T02:44:47;9.48;;;3.28;;
22705;SDS011;11520;51.198;4.468;2022-10-26T02:47:24;8.55;;;3.00;;
22705;SDS011;11520;51.198;4.468;2022-10-26T02:49:51;8.55;;;2.88;;
22705;SDS011;11520;51.198;4.468;2022-10-26T02:52:43;8.25;;;3.05;;
22705;SDS011;11520;51.198;4.468;2022-10-26T02:55:21;8.15;;;3.25;;
22705;SDS011;11520;51.198;4.468;2022-10-26T02:57:53;7.50;;;3.10;;
22705;SDS011;11520;51.198;4.468;2022-10-26T03:00:22;11.98;;;3.95;;
22705;SDS011;11520;51.198;4.468;2022-10-26T03:02:52;4.65;;;3.03;;
22705;SDS011;11520;51.198;4.468;2022-10-26T03:05:28;10.48;;;3.03;;
22705;SDS011;11520;51.198;4.468;2022-10-26T03:07:56;4.53;;;2.72;;
22705;SDS011;11520;51.198;4.468;2022-10-26T03:10:23;7.97;;;3.10;;
22705;SDS011;11520;51.198;4.468;2022-10-26T03:12:49;8.50;;;3.22;;
22705;SDS011;11520;51.198;4.468;2022-10-26T03:15:15;6.03;;;2.53;;
22705;SDS011;11520;51.198;4.468;2022-10-26T03:17:41;8.05;;;3.05;;
22705;SDS011;11520;51.198;4.468;2022-10-26T03:20:13;6.82;;;2.60;;
22705;SDS011;11520;51.198;4.468;2022-10-26T03:22:39;6.60;;;2.40;;
22705;SDS011;11520;51.198;4.468;2022-10-26T03:25:05;7.38;;;2.92;;
22705;SDS011;11520;51.198;4.468;2022-10-26T03:27:32;8.68;;;2.88;;
22705;SDS011;11520;51.198;4.468;2022-10-26T03:29:59;8.05;;;2.70;;
22705;SDS011;11520;51.198;4.468;2022-10-26T03:32:24;6.15;;;2.67;;
22705;SDS011;11520;51.198;4.468;2022-10-26T03:34:51;7.90;;;3.30;;
22705;SDS011;11520;51.198;4.468;2022-10-26T03:37:16;6.03;;;2.78;;
22705;SDS011;11520;51.198;4.468;2022-10-26T03:39:43;7.70;;;2.70;;
22705;SDS011;11520;51.198;4.468;2022-10-26T03:42:09;7.22;;;3.17;;
22705;SDS011;11520;51.198;4.468;2022-10-26T03:44:35;11.25;;;3.35;;
22705;SDS011;11520;51.198;4.468;2022-10-26T03:47:01;3.67;;;2.38;;
22705;SDS011;11520;51.198;4.468;2022-10-26T03:49:27;7.07;;;2.85;;
22705;SDS011;11520;51.198;4.468;2022-10-26T03:51:54;7.47;;;2.42;;
22705;SDS011;11520;51.198;4.468;2022-10-26T03:54:19;4.90;;;3.03;;
22705;SDS011;11520;51.198;4.468;2022-10-26T03:56:45;6.88;;;2.60;;
22705;SDS011;11520;51.198;4.468;2022-10-26T03:59:10;7.32;;;2.55;;
22705;SDS011;11520;51.198;4.468;2022-10-26T04:01:37;6.55;;;2.83;;
22705;SDS011;11520;51.198;4.468;2022-10-26T04:04:03;4.18;;;2.38;;
22705;SDS011;11520;51.198;4.468;2022-10-26T04:06:29;8.50;;;3.55;;
22705;SDS011;11520;51.198;4.468;2022-10-26T04:08:55;6.68;;;2.58;;
22705;SDS011;11520;51.198;4.468;2022-10-26T04:11:26;7.03;;;2.50;;
22705;SDS011;11520;51.198;4.468;2022-10-26T04:13:52;5.85;;;2.70;;
22705;SDS011;11520;51.198;4.468;2022-10-26T04:16:20;7.20;;;2.53;;
22705;SDS011;11520;51.198;4.468;2022-10-26T04:18:47;7.22;;;3.15;;
22705;SDS011;11520;51.198;4.468;2022-10-26T04:21:12;6.35;;;2.30;;
22705;SDS011;11520;51.198;4.468;2022-10-26T04:23:38;6.75;;;2.92;;
22705;SDS011;11520;51.198;4.468;2022-10-26T04:26:07;3.75;;;2.30;;
22705;SDS011;11520;51.198;4.468;2022-10-26T04:28:32;6.18;;;2.72;;
22705;SDS011;11520;51.198;4.468;2022-10-26T04:30:58;4.97;;;2.33;;
22705;SDS011;11520;51.198;4.468;2022-10-26T04:33:25;6.03;;;2.50;;
22705;SDS011;11520;51.198;4.468;2022-10-26T04:35:51;5.13;;;2.80;;
22705;SDS011;11520;51.198;4.468;2022-10-26T04:38:17;5.80;;;2.20;;
22705;SDS011;11520;51.198;4.468;2022-10-26T04:40:42;4.10;;;2.28;;
22705;SDS011;11520;51.198;4.468;2022-10-26T04:48:42;4.43;;;1.88;;
22705;SDS011;11520;51.198;4.468;2022-10-26T04:51:08;10.00;;;3.30;;
22705;SDS011;11520;51.198;4.468;2022-10-26T04:53:33;5.70;;;2.20;;
22705;SDS011;11520;51.198;4.468;2022-10-26T04:55:59;7.47;;;2.20;;
22705;SDS011;11520;51.198;4.468;2022-10-26T04:58:29;10.32;;;2.20;;
22705;SDS011;11520;51.198;4.468;2022-10-26T05:00:54;6.38;;;2.35;;
22705;SDS011;11520;51.198;4.468;2022-10-26T05:03:21;3.80;;;2.22;;
22705;SDS011;11520;51.198;4.468;2022-10-26T05:05:46;6.10;;;2.40;;
22705;SDS011;11520;51.198;4.468;2022-10-26T05:08:12;8.68;;;2.75;;
22705;SDS011;11520;51.198;4.468;2022-10-26T05:10:38;8.30;;;2.03;;
22705;SDS011;11520;51.198;4.468;2022-10-26T05:13:07;5.78;;;1.90;;
22705;SDS011;11520;51.198;4.468;2022-10-26T05:15:33;4.50;;;2.17;;
22705;SDS011;11520;51.198;4.468;2022-10-26T05:18:00;6.28;;;2.30;;
22705;SDS011;11520;51.198;4.468;2022-10-26T05:20:28;6.07;;;2.65;;
22705;SDS011;11520;51.198;4.468;2022-10-26T05:22:59;7.88;;;2.10;;
22705;SDS011;11520;51.198;4.468;2022-10-26T05:25:30;6.35;;;1.70;;
22705;SDS011;11520;51.198;4.468;2022-10-26T05:27:58;6.15;;;2.13;;
22705;SDS011;11520;51.198;4.468;2022-10-26T05:30:25;8.05;;;2.20;;
22705;SDS011;11520;51.198;4.468;2022-10-26T05:32:56;6.53;;;2.40;;
22705;SDS011;11520;51.198;4.468;2022-10-26T05:35:23;5.50;;;1.67;;
22705;SDS011;11520;51.198;4.468;2022-10-26T05:37:49;10.00;;;2.03;;
22705;SDS011;11520;51.198;4.468;2022-10-26T05:40:15;7.35;;;1.58;;
22705;SDS011;11520;51.198;4.468;2022-10-26T05:42:41;5.80;;;1.83;;
22705;SDS011;11520;51.198;4.468;2022-10-26T05:45:08;6.40;;;1.85;;
22705;SDS011;11520;51.198;4.468;2022-10-26T05:47:37;7.47;;;2.10;;
22705;SDS011;11520;51.198;4.468;2022-10-26T05:50:07;3.33;;;1.95;;
22705;SDS011;11520;51.198;4.468;2022-10-26T05:52:43;4.93;;;1.83;;
22705;SDS011;11520;51.198;4.468;2022-10-26T05:55:11;7.45;;;1.98;;
22705;SDS011;11520;51.198;4.468;2022-10-26T05:57:39;3.05;;;1.90;;
22705;SDS011;11520;51.198;4.468;2022-10-26T06:00:06;5.35;;;2.00;;
22705;SDS011;11520;51.198;4.468;2022-10-26T06:02:38;5.40;;;1.77;;
22705;SDS011;11520;51.198;4.468;2022-10-26T06:05:21;6.38;;;1.80;;
22705;SDS011;11520;51.198;4.468;2022-10-26T06:10:17;4.25;;;1.75;;
22705;SDS011;11520;51.198;4.468;2022-10-26T06:12:43;6.00;;;1.60;;
22705;SDS011;11520;51.198;4.468;2022-10-26T06:15:17;5.20;;;2.17;;
22705;SDS011;11520;51.198;4.468;2022-10-26T06:20:37;8.77;;;2.17;;
22705;SDS011;11520;51.198;4.468;2022-10-26T06:32:18;4.90;;;2.00;;
22705;SDS011;11520;51.198;4.468;2022-10-26T06:34:47;7.38;;;2.38;;
22705;SDS011;11520;51.198;4.468;2022-10-26T06:37:14;6.13;;;2.58;;
22705;SDS011;11520;51.198;4.468;2022-10-26T06:39:43;8.82;;;2.42;;
22705;SDS011;11520;51.198;4.468;2022-10-26T06:42:11;6.30;;;2.38;;
22705;SDS011;11520;51.198;4.468;2022-10-26T06:44:38;4.18;;;1.85;;
22705;SDS011;11520;51.198;4.468;2022-10-26T06:50:01;8.07;;;2.30;;
22705;SDS011;11520;51.198;4.468;2022-10-26T06:52:40;4.40;;;2.67;;
22705;SDS011;11520;51.198;4.468;2022-10-26T06:55:13;9.30;;;2.65;;
22705;SDS011;11520;51.198;4.468;2022-10-26T06:57:39;7.30;;;2.47;;
22705;SDS011;11520;51.198;4.468;2022-10-26T07:00:13;11.05;;;2.35;;
22705;SDS011;11520;51.198;4.468;2022-10-26T07:02:41;6.35;;;2.40;;
22705;SDS011;11520;51.198;4.468;2022-10-26T07:05:06;7.43;;;2.30;;
22705;SDS011;11520;51.198;4.468;2022-10-26T07:07:36;4.03;;;2.20;;
22705;SDS011;11520;51.198;4.468;2022-10-26T07:10:09;5.50;;;2.40;;
22705;SDS011;11520;51.198;4.468;2022-10-26T07:12:36;5.40;;;2.58;;
22705;SDS011;11520;51.198;4.468;2022-10-26T07:15:02;4.95;;;2.28;;
22705;SDS011;11520;51.198;4.468;2022-10-26T07:17:29;4.10;;;2.08;;
22705;SDS011;11520;51.198;4.468;2022-10-26T07:19:55;4.10;;;2.63;;
22705;SDS011;11520;51.198;4.468;2022-10-26T07:22:21;5.45;;;2.47;;
22705;SDS011;11520;51.198;4.468;2022-10-26T07:24:47;3.40;;;2.17;;
22705;SDS011;11520;51.198;4.468;2022-10-26T07:27:16;7.07;;;2.85;;
22705;SDS011;11520;51.198;4.468;2022-10-26T07:29:45;8.00;;;2.65;;
22705;SDS011;11520;51.198;4.468;2022-10-26T07:32:11;5.10;;;2.17;;
22705;SDS011;11520;51.198;4.468;2022-10-26T07:34:36;4.53;;;2.60;;
22705;SDS011;11520;51.198;4.468;2022-10-26T07:37:02;4.85;;;2.22;;
22705;SDS011;11520;51.198;4.468;2022-10-26T07:39:28;7.07;;;2.47;;
22705;SDS011;11520;51.198;4.468;2022-10-26T07:41:56;6.28;;;2.50;;
22705;SDS011;11520;51.198;4.468;2022-10-26T07:44:22;8.07;;;3.30;;
22705;SDS011;11520;51.198;4.468;2022-10-26T07:46:48;7.65;;;2.35;;
22705;SDS011;11520;51.198;4.468;2022-10-26T07:49:13;6.57;;;2.20;;
22705;SDS011;11520;51.198;4.468;2022-10-26T07:51:41;10.35;;;2.58;;
22705;SDS011;11520;51.198;4.468;2022-10-26T07:54:07;5.20;;;2.22;;
22705;SDS011;11520;51.198;4.468;2022-10-26T07:56:32;4.75;;;2.40;;
22705;SDS011;11520;51.198;4.468;2022-10-26T07:58:58;5.88;;;1.75;;
22705;SDS011;11520;51.198;4.468;2022-10-26T08:01:23;5.72;;;2.03;;
22705;SDS011;11520;51.198;4.468;2022-10-26T08:03:52;4.35;;;1.77;;
22705;SDS011;11520;51.198;4.468;2022-10-26T08:06:20;5.97;;;1.95;;
22705;SDS011;11520;51.198;4.468;2022-10-26T08:08:47;3.58;;;1.88;;
22705;SDS011;11520;51.198;4.468;2022-10-26T08:11:14;5.03;;;1.80;;
22705;SDS011;11520;51.198;4.468;2022-10-26T08:13:41;4.82;;;1.60;;
22705;SDS011;11520;51.198;4.468;2022-10-26T08:16:06;9.57;;;1.70;;
22705;SDS011;11520;51.198;4.468;2022-10-26T08:18:32;5.18;;;1.63;;
22705;SDS011;11520;51.198;4.468;2022-10-26T08:21:02;6.32;;;1.60;;
22705;SDS011;11520;51.198;4.468;2022-10-26T08:23:30;7.10;;;1.65;;
22705;SDS011;11520;51.198;4.468;2022-10-26T08:25:57;5.93;;;1.58;;
22705;SDS011;11520;51.198;4.468;2022-10-26T08:28:28;5.95;;;1.48;;
22705;SDS011;11520;51.198;4.468;2022-10-26T08:30:54;6.30;;;2.00;;
22705;SDS011;11520;51.198;4.468;2022-10-26T08:33:21;5.25;;;1.42;;
22705;SDS011;11520;51.198;4.468;2022-10-26T08:35:48;4.43;;;1.58;;
22705;SDS011;11520;51.198;4.468;2022-10-26T08:38:18;4.88;;;1.30;;
22705;SDS011;11520;51.198;4.468;2022-10-26T08:40:44;6.40;;;1.38;;
22705;SDS011;11520;51.198;4.468;2022-10-26T08:46:42;5.95;;;1.55;;
22705;SDS011;11520;51.198;4.468;2022-10-26T08:48:52;5.35;;;1.70;;
22705;SDS011;11520;51.198;4.468;2022-10-26T08:51:30;7.90;;;1.98;;
22705;SDS011;11520;51.198;4.468;2022-10-26T08:56:51;7.22;;;1.75;;
22705;SDS011;11520;51.198;4.468;2022-10-26T09:01:52;6.97;;;1.70;;
22705;SDS011;11520;51.198;4.468;2022-10-26T09:04:19;6.18;;;1.63;;
22705;SDS011;11520;51.198;4.468;2022-10-26T09:15:15;16.13;;;1.83;;
22705;SDS011;11520;51.198;4.468;2022-10-26T09:25:42;3.80;;;1.25;;
22705;SDS011;11520;51.198;4.468;2022-10-26T09:28:17;5.68;;;1.58;;
22705;SDS011;11520;51.198;4.468;2022-10-26T09:30:46;3.17;;;1.40;;
22705;SDS011;11520;51.198;4.468;2022-10-26T09:33:14;4.00;;;1.08;;
22705;SDS011;11520;51.198;4.468;2022-10-26T09:49:22;7.88;;;1.27;;
22705;SDS011;11520;51.198;4.468;2022-10-26T09:51:55;7.85;;;1.60;;
22705;SDS011;11520;51.198;4.468;2022-10-26T09:54:22;6.28;;;1.48;;
22705;SDS011;11520;51.198;4.468;2022-10-26T09:56:49;6.10;;;1.33;;
22705;SDS011;11520;51.198;4.468;2022-10-26T09:59:19;6.82;;;1.58;;
22705;SDS011;11520;51.198;4.468;2022-10-26T10:01:47;2.90;;;1.00;;
22705;SDS011;11520;51.198;4.468;2022-10-26T10:06:44;4.28;;;1.38;;
22705;SDS011;11520;51.198;4.468;2022-10-26T10:09:12;7.88;;;1.52;;
22705;SDS011;11520;51.198;4.468;2022-10-26T10:16:56;11.73;;;1.55;;
22705;SDS011;11520;51.198;4.468;2022-10-26T10:19:30;3.63;;;1.35;;
22705;SDS011;11520;51.198;4.468;2022-10-26T10:24:39;4.80;;;1.33;;
22705;SDS011;11520;51.198;4.468;2022-10-26T10:29:40;3.17;;;1.20;;
22705;SDS011;11520;51.198;4.468;2022-10-26T10:32:16;5.20;;;1.80;;
22705;SDS011;11520;51.198;4.468;2022-10-26T10:34:59;5.40;;;1.30;;
22705;SDS011;11520;51.198;4.468;2022-10-26T10:37:26;4.93;;;1.20;;
22705;SDS011;11520;51.198;4.468;2022-10-26T10:39:57;1.85;;;1.10;;
22705;SDS011;11520;51.198;4.468;2022-10-26T10:42:31;5.53;;;1.13;;
22705;SDS011;11520;51.198;4.468;2022-10-26T10:44:59;4.68;;;1.35;;
22705;SDS011;11520;51.198;4.468;2022-10-26T10:47:27;5.03;;;1.40;;
22705;SDS011;11520;51.198;4.468;2022-10-26T10:52:40;4.43;;;1.30;;
22705;SDS011;11520;51.198;4.468;2022-10-26T11:00:22;3.97;;;1.20;;
22705;SDS011;11520;51.198;4.468;2022-10-26T11:03:10;4.95;;;1.20;;
22705;SDS011;11520;51.198;4.468;2022-10-26T11:06:17;4.90;;;0.90;;
22705;SDS011;11520;51.198;4.468;2022-10-26T11:08:49;3.78;;;1.20;;
22705;SDS011;11520;51.198;4.468;2022-10-26T11:14:13;5.25;;;1.80;;
22705;SDS011;11520;51.198;4.468;2022-10-26T11:16:47;4.68;;;1.40;;
22705;SDS011;11520;51.198;4.468;2022-10-26T11:19:22;7.75;;;1.67;;
22705;SDS011;11520;51.198;4.468;2022-10-26T11:21:52;5.05;;;1.48;;
22705;SDS011;11520;51.198;4.468;2022-10-26T11:24:24;6.88;;;1.83;;
22705;SDS011;11520;51.198;4.468;2022-10-26T11:29:52;3.03;;;0.98;;
22705;SDS011;11520;51.198;4.468;2022-10-26T11:35:25;3.80;;;0.98;;
22705;SDS011;11520;51.198;4.468;2022-10-26T11:38:18;3.63;;;1.15;;
22705;SDS011;11520;51.198;4.468;2022-10-26T11:40:54;9.15;;;1.55;;
22705;SDS011;11520;51.198;4.468;2022-10-26T11:43:37;5.97;;;1.20;;
22705;SDS011;11520;51.198;4.468;2022-10-26T11:46:16;6.85;;;1.10;;
22705;SDS011;11520;51.198;4.468;2022-10-26T11:54:46;3.00;;;1.17;;
22705;SDS011;11520;51.198;4.468;2022-10-26T11:57:19;5.43;;;1.30;;
22705;SDS011;11520;51.198;4.468;2022-10-26T11:59:52;3.00;;;1.00;;
22705;SDS011;11520;51.198;4.468;2022-10-26T12:02:23;7.45;;;1.38;;
22705;SDS011;11520;51.198;4.468;2022-10-26T12:08:01;8.80;;;1.30;;
22705;SDS011;11520;51.198;4.468;2022-10-26T12:10:34;3.75;;;1.02;;
22705;SDS011;11520;51.198;4.468;2022-10-26T12:15:40;6.25;;;1.02;;
22705;SDS011;11520;51.198;4.468;2022-10-26T12:21:03;6.03;;;0.93;;
22705;SDS011;11520;51.198;4.468;2022-10-26T12:23:36;4.30;;;1.30;;
22705;SDS011;11520;51.198;4.468;2022-10-26T12:26:36;4.65;;;0.88;;
22705;SDS011;11520;51.198;4.468;2022-10-26T12:34:12;10.70;;;2.42;;
22705;SDS011;11520;51.198;4.468;2022-10-26T12:42:26;4.95;;;1.05;;
22705;SDS011;11520;51.198;4.468;2022-10-26T12:55:12;4.70;;;1.00;;
22705;SDS011;11520;51.198;4.468;2022-10-26T13:00:32;7.07;;;1.42;;
22705;SDS011;11520;51.198;4.468;2022-10-26T13:05:36;9.43;;;1.00;;
22705;SDS011;11520;51.198;4.468;2022-10-26T13:08:12;12.43;;;1.27;;
22705;SDS011;11520;51.198;4.468;2022-10-26T13:10:39;5.45;;;1.20;;
22705;SDS011;11520;51.198;4.468;2022-10-26T13:13:24;4.10;;;0.90;;
22705;SDS011;11520;51.198;4.468;2022-10-26T13:15:52;5.60;;;1.60;;
22705;SDS011;11520;51.198;4.468;2022-10-26T13:18:19;2.83;;;0.70;;
22705;SDS011;11520;51.198;4.468;2022-10-26T13:23:37;3.50;;;0.73;;
22705;SDS011;11520;51.198;4.468;2022-10-26T13:33:52;3.85;;;1.10;;
22705;SDS011;11520;51.198;4.468;2022-10-26T13:36:40;7.27;;;1.00;;
22705;SDS011;11520;51.198;4.468;2022-10-26T13:39:17;4.03;;;0.95;;
22705;SDS011;11520;51.198;4.468;2022-10-26T13:41:46;2.75;;;0.90;;
22705;SDS011;11520;51.198;4.468;2022-10-26T13:44:25;4.72;;;1.48;;
22705;SDS011;11520;51.198;4.468;2022-10-26T13:47:12;2.22;;;0.75;;
22705;SDS011;11520;51.198;4.468;2022-10-26T13:49:47;3.85;;;1.17;;
22705;SDS011;11520;51.198;4.468;2022-10-26T13:52:18;3.47;;;0.90;;
22705;SDS011;11520;51.198;4.468;2022-10-26T13:54:58;6.22;;;0.70;;
22705;SDS011;11520;51.198;4.468;2022-10-26T14:00:22;6.50;;;1.13;;
22705;SDS011;11520;51.198;4.468;2022-10-26T14:02:49;7.00;;;0.82;;
22705;SDS011;11520;51.198;4.468;2022-10-26T14:05:15;2.15;;;0.88;;
22705;SDS011;11520;51.198;4.468;2022-10-26T14:07:53;6.50;;;1.10;;
22705;SDS011;11520;51.198;4.468;2022-10-26T14:13:08;2.97;;;0.80;;
22705;SDS011;11520;51.198;4.468;2022-10-26T14:15:37;2.63;;;1.05;;
22705;SDS011;11520;51.198;4.468;2022-10-26T14:18:10;4.65;;;1.15;;
22705;SDS011;11520;51.198;4.468;2022-10-26T14:20:46;3.08;;;0.98;;
22705;SDS011;11520;51.198;4.468;2022-10-26T14:25:58;3.53;;;0.90;;
22705;SDS011;11520;51.198;4.468;2022-10-26T14:28:25;5.05;;;0.80;;
22705;SDS011;11520;51.198;4.468;2022-10-26T14:30:53;4.25;;;0.90;;
22705;SDS011;11520;51.198;4.468;2022-10-26T14:33:35;5.47;;;1.15;;
22705;SDS011;11520;51.198;4.468;2022-10-26T14:36:00;6.75;;;0.98;;
22705;SDS011;11520;51.198;4.468;2022-10-26T14:38:27;3.88;;;1.05;;
22705;SDS011;11520;51.198;4.468;2022-10-26T14:40:57;3.30;;;0.90;;
22705;SDS011;11520;51.198;4.468;2022-10-26T14:43:23;5.50;;;1.25;;
22705;SDS011;11520;51.198;4.468;2022-10-26T14:45:50;4.70;;;1.10;;
22705;SDS011;11520;51.198;4.468;2022-10-26T14:48:27;7.22;;;1.40;;
22705;SDS011;11520;51.198;4.468;2022-10-26T14:53:35;4.38;;;1.30;;
22705;SDS011;11520;51.198;4.468;2022-10-26T14:56:04;7.68;;;1.02;;
22705;SDS011;11520;51.198;4.468;2022-10-26T14:58:41;2.75;;;1.20;;
22705;SDS011;11520;51.198;4.468;2022-10-26T15:01:14;6.05;;;0.95;;
22705;SDS011;11520;51.198;4.468;2022-10-26T15:03:42;4.93;;;0.90;;
22705;SDS011;11520;51.198;4.468;2022-10-26T15:06:28;6.80;;;1.08;;
22705;SDS011;11520;51.198;4.468;2022-10-26T15:09:04;3.35;;;1.10;;
22705;SDS011;11520;51.198;4.468;2022-10-26T15:11:31;6.85;;;0.95;;
22705;SDS011;11520;51.198;4.468;2022-10-26T15:13:58;6.95;;;1.20;;
22705;SDS011;11520;51.198;4.468;2022-10-26T15:16:25;4.07;;;0.98;;
22705;SDS011;11520;51.198;4.468;2022-10-26T15:19:05;3.67;;;1.35;;
22705;SDS011;11520;51.198;4.468;2022-10-26T15:21:33;2.58;;;0.95;;
22705;SDS011;11520;51.198;4.468;2022-10-26T15:24:00;5.75;;;1.17;;
22705;SDS011;11520;51.198;4.468;2022-10-26T15:26:27;6.95;;;1.10;;
22705;SDS011;11520;51.198;4.468;2022-10-26T15:28:55;2.40;;;0.88;;
22705;SDS011;11520;51.198;4.468;2022-10-26T15:36:30;4.33;;;1.17;;
22705;SDS011;11520;51.198;4.468;2022-10-26T15:38:57;11.55;;;1.20;;
22705;SDS011;11520;51.198;4.468;2022-10-26T15:41:27;7.05;;;1.20;;
22705;SDS011;11520;51.198;4.468;2022-10-26T15:44:00;6.47;;;1.30;;
22705;SDS011;11520;51.198;4.468;2022-10-26T15:46:35;6.22;;;1.25;;
22705;SDS011;11520;51.198;4.468;2022-10-26T15:49:04;2.97;;;1.33;;
22705;SDS011;11520;51.198;4.468;2022-10-26T15:51:32;6.72;;;1.20;;
22705;SDS011;11520;51.198;4.468;2022-10-26T15:54:03;6.15;;;1.30;;
22705;SDS011;11520;51.198;4.468;2022-10-26T15:56:30;5.03;;;1.10;;
22705;SDS011;11520;51.198;4.468;2022-10-26T15:58:56;7.07;;;1.20;;
22705;SDS011;11520;51.198;4.468;2022-10-26T16:01:23;5.22;;;1.17;;
22705;SDS011;11520;51.198;4.468;2022-10-26T16:03:53;7.53;;;1.40;;
22705;SDS011;11520;51.198;4.468;2022-10-26T16:06:41;5.65;;;1.25;;
22705;SDS011;11520;51.198;4.468;2022-10-26T16:09:06;6.63;;;1.35;;
22705;SDS011;11520;51.198;4.468;2022-10-26T16:11:40;4.43;;;1.17;;
22705;SDS011;11520;51.198;4.468;2022-10-26T16:14:15;8.52;;;1.40;;
22705;SDS011;11520;51.198;4.468;2022-10-26T16:16:40;5.28;;;1.33;;
22705;SDS011;11520;51.198;4.468;2022-10-26T16:19:08;10.07;;;1.63;;
22705;SDS011;11520;51.198;4.468;2022-10-26T16:21:34;8.30;;;1.80;;
22705;SDS011;11520;51.198;4.468;2022-10-26T16:23:59;7.75;;;1.35;;
22705;SDS011;11520;51.198;4.468;2022-10-26T16:26:26;5.32;;;1.30;;
22705;SDS011;11520;51.198;4.468;2022-10-26T16:28:51;6.93;;;1.27;;
22705;SDS011;11520;51.198;4.468;2022-10-26T16:31:18;5.03;;;1.73;;
22705;SDS011;11520;51.198;4.468;2022-10-26T16:33:47;7.40;;;1.77;;
22705;SDS011;11520;51.198;4.468;2022-10-26T16:36:12;8.98;;;3.33;;
22705;SDS011;11520;51.198;4.468;2022-10-26T16:38:39;7.05;;;1.55;;
22705;SDS011;11520;51.198;4.468;2022-10-26T16:41:10;6.72;;;1.83;;
22705;SDS011;11520;51.198;4.468;2022-10-26T16:43:41;3.10;;;1.38;;
22705;SDS011;11520;51.198;4.468;2022-10-26T16:46:15;4.28;;;1.17;;
22705;SDS011;11520;51.198;4.468;2022-10-26T16:48:42;4.57;;;1.38;;
22705;SDS011;11520;51.198;4.468;2022-10-26T16:51:13;4.88;;;1.20;;
22705;SDS011;11520;51.198;4.468;2022-10-26T16:53:41;9.98;;;2.15;;
22705;SDS011;11520;51.198;4.468;2022-10-26T16:56:09;4.50;;;2.22;;
22705;SDS011;11520;51.198;4.468;2022-10-26T16:58:37;8.00;;;2.33;;
22705;SDS011;11520;51.198;4.468;2022-10-26T17:01:05;9.98;;;4.07;;
22705;SDS011;11520;51.198;4.468;2022-10-26T17:03:31;4.97;;;1.80;;
22705;SDS011;11520;51.198;4.468;2022-10-26T17:05:59;8.05;;;2.38;;
22705;SDS011;11520;51.198;4.468;2022-10-26T17:08:27;20.83;;;7.85;;
22705;SDS011;11520;51.198;4.468;2022-10-26T17:11:00;11.65;;;3.80;;
22705;SDS011;11520;51.198;4.468;2022-10-26T17:15:53;6.82;;;2.33;;
22705;SDS011;11520;51.198;4.468;2022-10-26T17:18:19;5.05;;;1.75;;
22705;SDS011;11520;51.198;4.468;2022-10-26T17:20:49;5.35;;;1.75;;
22705;SDS011;11520;51.198;4.468;2022-10-26T17:23:15;7.38;;;2.47;;
22705;SDS011;11520;51.198;4.468;2022-10-26T17:25:41;12.07;;;2.10;;
22705;SDS011;11520;51.198;4.468;2022-10-26T17:28:08;5.40;;;1.58;;
22705;SDS011;11520;51.198;4.468;2022-10-26T17:30:34;10.13;;;4.25;;
22705;SDS011;11520;51.198;4.468;2022-10-26T17:33:00;11.43;;;3.10;;
22705;SDS011;11520;51.198;4.468;2022-10-26T17:35:26;53.70;;;39.40;;
22705;SDS011;11520;51.198;4.468;2022-10-26T17:37:52;54.67;;;38.53;;
22705;SDS011;11520;51.198;4.468;2022-10-26T17:40:17;17.75;;;12.07;;
22705;SDS011;11520;51.198;4.468;2022-10-26T17:42:43;30.85;;;20.02;;
22705;SDS011;11520;51.198;4.468;2022-10-26T17:45:09;23.13;;;16.40;;
22705;SDS011;11520;51.198;4.468;2022-10-26T17:47:35;18.95;;;12.23;;
22705;SDS011;11520;51.198;4.468;2022-10-26T17:50:00;15.60;;;10.25;;
22705;SDS011;11520;51.198;4.468;2022-10-26T17:52:28;11.40;;;2.65;;
22705;SDS011;11520;51.198;4.468;2022-10-26T17:54:55;6.40;;;2.30;;
22705;SDS011;11520;51.198;4.468;2022-10-26T17:57:21;7.20;;;2.60;;
22705;SDS011;11520;51.198;4.468;2022-10-26T17:59:47;24.30;;;21.83;;
22705;SDS011;11520;51.198;4.468;2022-10-26T18:02:12;11.30;;;7.65;;
22705;SDS011;11520;51.198;4.468;2022-10-26T18:04:38;11.88;;;3.20;;
22705;SDS011;11520;51.198;4.468;2022-10-26T18:07:04;5.00;;;2.92;;
22705;SDS011;11520;51.198;4.468;2022-10-26T18:09:30;9.02;;;2.42;;
22705;SDS011;11520;51.198;4.468;2022-10-26T18:11:56;10.63;;;6.50;;